Time;durP1;ratioP1;P1;durP2;ratioP2;P2;SDS_P1;SDS_P2;PMS_P1;PMS_P2;Temp;Humidity;BMP_temperature;BMP_pressure;BME280_temperature;BME280_humidity;BME280_pressure;Samples;Min_cycle;Max_cycle;Signal;HPM_P1;HPM_P2
2022/01/23 00:00:28;;;;;;;0.20;0.20;;;1.60;99.90;;;;;;5017123;28;20029;-75
2022/01/23 00:02:59;;;;;;;0.00;0.00;;;1.70;99.90;;;;;;5034827;28;20112;-74
2022/01/23 00:05:28;;;;;;;0.40;0.40;;;1.80;99.90;;;;;;5017172;28;20025;-75
2022/01/23 00:07:54;;;;;;;0.10;0.10;;;1.80;99.90;;;;;;5016915;28;20083;-74
2022/01/23 00:10:20;;;;;;;0.73;0.73;;;1.90;99.90;;;;;;5034576;28;20030;-75
2022/01/23 00:13:05;;;;;;;0.15;0.15;;;1.80;99.90;;;;;;5016770;28;20033;-74
2022/01/23 00:18:15;;;;;;;0.38;0.38;;;1.90;99.90;;;;;;5016653;28;20025;-74
2022/01/23 00:20:41;;;;;;;1.08;0.68;;;1.90;99.90;;;;;;5000189;28;20543;-74
2022/01/23 00:23:15;;;;;;;0.45;0.25;;;1.80;99.90;;;;;;5034263;28;20032;-74
2022/01/23 00:31:10;;;;;;;0.40;0.40;;;1.80;99.90;;;;;;5016473;28;20029;-75
2022/01/23 00:33:35;;;;;;;0.20;0.20;;;1.90;99.90;;;;;;5034200;28;20499;-75
2022/01/23 00:36:03;;;;;;;0.10;0.10;;;1.90;99.90;;;;;;5016559;28;20036;-74
2022/01/23 00:38:29;;;;;;;3.30;2.15;;;1.90;99.90;;;;;;5015298;28;20056;-74
2022/01/23 00:40:54;;;;;;;1.70;0.77;;;1.80;99.90;;;;;;5033941;28;20497;-73
2022/01/23 00:43:28;;;;;;;0.40;0.40;;;1.70;99.90;;;;;;5033992;28;20037;-75
2022/01/23 00:46:10;;;;;;;1.98;1.00;;;1.90;99.90;;;;;;5034059;28;20108;-74
2022/01/23 00:48:41;;;;;;;0.60;0.60;;;1.80;99.90;;;;;;5016356;28;20025;-75
2022/01/23 00:51:06;;;;;;;0.10;0.10;;;1.90;99.90;;;;;;5033894;28;20084;-75
2022/01/23 00:53:32;;;;;;;0.43;0.20;;;2.00;99.90;;;;;;5033855;28;20272;-75
2022/01/23 00:55:58;;;;;;;1.20;1.00;;;2.10;99.90;;;;;;5032583;28;20389;-74
2022/01/23 00:58:24;;;;;;;0.10;0.10;;;2.00;99.90;;;;;;5033806;28;20022;-75
2022/01/23 01:00:50;;;;;;;1.55;1.10;;;2.10;99.90;;;;;;5033622;28;20028;-75
2022/01/23 01:03:16;;;;;;;0.20;0.20;;;2.10;99.90;;;;;;5015725;28;20104;-74
2022/01/23 01:05:42;;;;;;;0.10;0.10;;;2.00;99.90;;;;;;5015899;28;20100;-74
2022/01/23 01:08:08;;;;;;;1.75;1.13;;;2.00;99.90;;;;;;5016067;28;20469;-74
2022/01/23 01:10:46;;;;;;;1.55;1.45;;;2.00;99.90;;;;;;5015731;28;20022;-74
2022/01/23 01:13:13;;;;;;;0.10;0.10;;;2.00;99.90;;;;;;5015777;28;20025;-74
2022/01/23 01:15:56;;;;;;;0.10;0.10;;;2.00;99.90;;;;;;5033301;28;20017;-75
2022/01/23 01:32:08;;;;;;;0.10;0.10;;;2.10;99.90;;;;;;5033230;28;20049;-74
2022/01/23 01:34:50;;;;;;;0.20;0.20;;;2.10;99.90;;;;;;5033251;28;20021;-75
2022/01/23 01:37:15;;;;;;;;;;;2.10;99.90;;;;;;5033423;28;20039;-74
2022/01/23 01:39:42;;;;;;;3.30;2.55;;;2.10;99.90;;;;;;5033085;28;20004;-74
2022/01/23 01:42:08;;;;;;;0.93;0.93;;;2.20;99.90;;;;;;5032811;28;20052;-74
2022/01/23 01:44:34;;;;;;;1.45;1.27;;;2.00;99.90;;;;;;5015019;28;20029;-74
2022/01/23 01:46:59;;;;;;;0.10;0.10;;;2.00;99.90;;;;;;5032835;28;20021;-75
2022/01/23 01:49:28;;;;;;;0.10;0.10;;;2.00;99.90;;;;;;5032601;28;20124;-74
2022/01/23 01:51:57;;;;;;;0.17;0.17;;;2.10;99.90;;;;;;5032658;28;20028;-74
2022/01/23 01:54:26;;;;;;;0.20;0.20;;;2.20;99.90;;;;;;5032731;28;20029;-73
2022/01/23 01:57:04;;;;;;;1.13;1.13;;;2.20;99.90;;;;;;5014940;28;20051;-74
2022/01/23 02:00:00;;;;;;;1.75;0.73;;;2.20;99.90;;;;;;5015185;28;20508;-74
2022/01/23 02:02:56;;;;;;;1.65;1.55;;;2.10;99.90;;;;;;5013638;28;20112;-75
2022/01/23 02:08:24;;;;;;;0.10;0.10;;;2.00;99.90;;;;;;5014841;28;20036;-74
2022/01/23 02:10:55;;;;;;;0.30;0.30;;;2.10;99.90;;;;;;5031229;28;20022;-73
2022/01/23 02:56:50;;;;;;;0.13;0.13;;;2.00;99.90;;;;;;5031810;28;20481;-74
2022/01/23 02:59:24;;;;;;;5.35;1.88;;;1.90;99.90;;;;;;5031954;28;20499;-74
2022/01/23 03:02:11;;;;;;;1.35;0.80;;;1.90;99.90;;;;;;5030955;28;20030;-74
2022/01/23 03:04:40;;;;;;;0.10;0.10;;;1.90;99.90;;;;;;5035902;28;20021;-74
2022/01/23 03:15:05;;;;;;;0.20;0.20;;;1.80;99.90;;;;;;5036025;28;20022;-74
2022/01/23 03:28:20;;;;;;;0.10;0.10;;;1.80;99.90;;;;;;5035581;28;20037;-74
2022/01/23 03:31:05;;;;;;;0.13;0.13;;;1.80;99.90;;;;;;5035635;28;20032;-75
2022/01/23 03:33:36;;;;;;;0.60;0.60;;;2.00;99.90;;;;;;5017532;28;20455;-74
2022/01/23 03:36:03;;;;;;;0.20;0.20;;;2.00;99.90;;;;;;5035364;28;20064;-74
2022/01/23 03:38:29;;;;;;;0.10;0.10;;;2.10;99.90;;;;;;5035240;28;20033;-74
2022/01/23 03:40:56;;;;;;;1.10;1.05;;;2.10;99.90;;;;;;5001282;28;20481;-74
2022/01/23 03:43:28;;;;;;;0.20;0.20;;;2.10;99.90;;;;;;5035097;28;20520;-74
2022/01/23 03:51:12;;;;;;;0.30;0.30;;;2.30;99.90;;;;;;5017554;28;20043;-74
2022/01/23 03:53:38;;;;;;;0.10;0.10;;;2.30;99.90;;;;;;5034831;28;20317;-74
2022/01/23 03:56:05;;;;;;;0.20;0.20;;;2.30;99.90;;;;;;5034943;28;20100;-74
2022/01/23 03:58:31;;;;;;;0.13;0.13;;;2.40;99.90;;;;;;5035046;28;20474;-74
2022/01/23 04:00:57;;;;;;;0.10;0.10;;;2.40;99.90;;;;;;5017246;28;20026;-74
2022/01/23 04:03:23;;;;;;;0.15;0.15;;;2.40;99.90;;;;;;5034686;28;20112;-73
2022/01/23 04:05:50;;;;;;;0.47;0.47;;;2.50;99.90;;;;;;5034738;28;20021;-73
2022/01/23 04:08:20;;;;;;;0.10;0.10;;;2.60;99.90;;;;;;5034732;28;20029;-74
2022/01/23 04:10:46;;;;;;;0.38;0.38;;;2.70;99.90;;;;;;5033526;28;20492;-74
2022/01/23 04:20:43;;;;;;;3.53;2.08;;;2.40;99.90;;;;;;5034449;28;20034;-74
2022/01/23 04:31:49;;;;;;;0.20;0.20;;;2.40;99.90;;;;;;5016667;28;20025;-73
2022/01/23 04:45:35;;;;;;;0.47;0.20;;;2.50;99.90;;;;;;5034087;28;20029;-74
2022/01/23 05:01:46;;;;;;;1.10;1.10;;;2.60;99.90;;;;;;5033783;28;20018;-74
2022/01/23 05:06:43;;;;;;;0.10;0.10;;;2.40;99.90;;;;;;5033777;28;20100;-74
2022/01/23 05:09:11;;;;;;;0.38;0.38;;;2.40;99.90;;;;;;5032453;28;20079;-74
2022/01/23 05:11:43;;;;;;;1.10;1.00;;;2.50;99.90;;;;;;5015740;28;20496;-74
2022/01/23 05:14:09;;;;;;;0.20;0.20;;;2.40;99.90;;;;;;5033573;28;20469;-74
2022/01/23 05:16:35;;;;;;;1.10;0.73;;;2.40;99.90;;;;;;5033573;28;20485;-74
2022/01/23 05:19:01;;;;;;;0.10;0.10;;;2.40;99.90;;;;;;5032190;28;20113;-74
2022/01/23 05:24:11;;;;;;;0.60;0.60;;;2.80;99.90;;;;;;5015347;28;20117;-73
2022/01/23 05:26:43;;;;;;;0.17;0.17;;;2.70;99.90;;;;;;5015092;28;20159;-74
2022/01/23 05:29:10;;;;;;;0.10;0.10;;;2.50;99.90;;;;;;5015781;28;20451;-74
2022/01/23 05:31:36;;;;;;;0.32;0.32;;;2.40;99.90;;;;;;5033181;28;20021;-74
2022/01/23 05:34:01;;;;;;;0.35;0.35;;;2.40;99.90;;;;;;5015331;28;20040;-74
2022/01/23 05:36:27;;;;;;;0.47;0.47;;;2.30;99.90;;;;;;5033018;28;20026;-74
2022/01/23 05:38:53;;;;;;;0.17;0.17;;;2.30;99.90;;;;;;5015536;28;20505;-74
2022/01/23 05:41:19;;;;;;;0.20;0.20;;;2.40;99.90;;;;;;5015400;28;20033;-73
2022/01/23 05:43:45;;;;;;;0.50;0.50;;;2.30;99.90;;;;;;5031876;28;20017;-74
2022/01/23 05:46:11;;;;;;;0.63;0.55;;;2.30;99.90;;;;;;5031582;28;20083;-73
2022/01/23 05:48:37;;;;;;;1.65;1.55;;;2.10;99.90;;;;;;5031663;28;20028;-73
2022/01/23 05:51:05;;;;;;;3.35;0.75;;;2.00;99.90;;;;;;5032840;28;20034;-74
2022/01/23 05:53:30;;;;;;;3.33;2.28;;;2.00;99.90;;;;;;5032817;28;20025;-74
2022/01/23 05:55:56;;;;;;;0.35;0.35;;;2.00;99.90;;;;;;5032772;28;20136;-74
2022/01/23 05:58:22;;;;;;;3.85;1.98;;;2.00;99.90;;;;;;5014936;28;20033;-74
2022/01/23 06:00:48;;;;;;;0.40;0.40;;;2.00;99.90;;;;;;4998647;28;20030;-74
2022/01/23 06:03:13;;;;;;;4.72;1.10;;;2.10;99.90;;;;;;4998522;28;20400;-74
2022/01/23 06:05:39;;;;;;;0.17;0.17;;;2.20;99.90;;;;;;5032518;28;20044;-73
2022/01/23 06:08:05;;;;;;;1.33;1.08;;;2.20;99.90;;;;;;5014956;28;20052;-73
2022/01/23 06:10:46;;;;;;;1.95;1.27;;;2.20;99.90;;;;;;5032603;28;20025;-75
2022/01/23 06:13:12;;;;;;;1.05;1.05;;;2.00;99.90;;;;;;5032426;28;20037;-74
2022/01/23 06:15:37;;;;;;;1.58;1.50;;;2.10;99.90;;;;;;5033877;28;20393;-74
2022/01/23 06:18:03;;;;;;;1.08;1.08;;;2.10;99.90;;;;;;4998329;28;20524;-74
2022/01/23 06:20:29;;;;;;;1.50;1.40;;;2.10;99.90;;;;;;5016126;28;20026;-76
2022/01/23 06:22:55;;;;;;;4.82;2.25;;;2.00;99.90;;;;;;4998313;28;20432;-75
2022/01/23 06:25:21;;;;;;;1.35;1.30;;;2.00;99.90;;;;;;5014689;28;20049;-74
2022/01/23 06:27:47;;;;;;;3.92;1.00;;;2.00;99.90;;;;;;5014353;28;20037;-74
2022/01/23 06:30:13;;;;;;;1.13;0.82;;;2.10;99.90;;;;;;5032092;28;20057;-74
2022/01/23 06:32:39;;;;;;;0.20;0.20;;;2.10;99.90;;;;;;5032113;28;20079;-74
2022/01/23 06:35:05;;;;;;;0.65;0.65;;;2.20;99.90;;;;;;5014457;28;20029;-74
2022/01/23 06:37:31;;;;;;;0.45;0.45;;;2.30;99.90;;;;;;5014300;28;20035;-74
2022/01/23 06:39:56;;;;;;;0.10;0.10;;;2.30;99.90;;;;;;5014302;28;20033;-74
2022/01/23 06:42:22;;;;;;;0.40;0.40;;;2.20;99.90;;;;;;5013731;28;20427;-73
2022/01/23 06:44:48;;;;;;;0.20;0.20;;;2.20;99.90;;;;;;5014921;28;20096;-74
2022/01/23 06:47:14;;;;;;;0.20;0.20;;;2.10;99.90;;;;;;5014417;28;20017;-74
2022/01/23 06:49:39;;;;;;;0.73;0.55;;;2.20;99.90;;;;;;5031613;28;20057;-74
2022/01/23 06:52:05;;;;;;;5.68;3.30;;;2.20;99.90;;;;;;5013970;28;20512;-74
2022/01/23 06:54:31;;;;;;;9.63;2.40;;;2.20;99.90;;;;;;5014102;28;20034;-74
2022/01/23 06:56:57;;;;;;;0.22;0.22;;;2.20;99.90;;;;;;5013786;28;20347;-74
2022/01/23 06:59:23;;;;;;;0.10;0.10;;;2.10;99.90;;;;;;5014214;28;20029;-74
2022/01/23 07:01:48;;;;;;;0.20;0.20;;;2.10;99.90;;;;;;4997617;28;20401;-73
2022/01/23 07:04:14;;;;;;;0.20;0.20;;;2.10;99.90;;;;;;5031778;28;20029;-74
2022/01/23 07:06:40;;;;;;;0.10;0.10;;;2.20;99.90;;;;;;5031779;28;20022;-74
2022/01/23 07:09:06;;;;;;;0.10;0.10;;;2.20;99.90;;;;;;5014173;28;20439;-74
2022/01/23 07:11:32;;;;;;;0.17;0.17;;;2.30;99.90;;;;;;5031628;28;20025;-74
2022/01/23 07:13:57;;;;;;;1.48;1.10;;;2.50;99.90;;;;;;4994138;28;20036;-74
2022/01/23 07:16:23;;;;;;;2.67;2.47;;;2.70;99.90;;;;;;4994361;28;20028;-74
2022/01/23 07:18:49;;;;;;;0.95;0.95;;;2.60;99.90;;;;;;5010602;28;20032;-74
2022/01/23 07:21:15;;;;;;;3.20;2.83;;;2.40;99.90;;;;;;5011665;28;20037;-74
2022/01/23 07:23:49;;;;;;;8.10;2.13;;;2.40;99.90;;;;;;5010428;28;20077;-74
2022/01/23 07:26:15;;;;;;;0.80;0.80;;;2.50;99.90;;;;;;4994456;28;20033;-75
2022/01/23 07:28:43;;;;;;;0.55;0.55;;;2.40;99.90;;;;;;4978845;28;20494;-76
2022/01/23 07:31:10;;;;;;;0.10;0.10;;;2.40;99.90;;;;;;4994733;28;20053;-73
2022/01/23 07:33:36;;;;;;;0.88;0.88;;;2.40;99.90;;;;;;5011619;28;20051;-74
2022/01/23 07:36:04;;;;;;;0.55;0.55;;;2.40;99.90;;;;;;4994086;28;20109;-74
2022/01/23 07:38:30;;;;;;;0.20;0.20;;;2.40;99.90;;;;;;5011718;28;20018;-73
2022/01/23 07:40:56;;;;;;;0.30;0.30;;;2.50;99.90;;;;;;5010516;28;20052;-74
2022/01/23 07:43:22;;;;;;;0.10;0.10;;;2.50;99.90;;;;;;5011579;28;20022;-74
2022/01/23 07:45:48;;;;;;;1.38;1.27;;;2.50;99.90;;;;;;5011625;28;20426;-74
2022/01/23 07:48:14;;;;;;;0.10;0.10;;;2.70;99.90;;;;;;4978723;28;20080;-73
2022/01/23 07:50:40;;;;;;;0.10;0.10;;;2.70;99.90;;;;;;5015146;28;20022;-74
2022/01/23 07:53:06;;;;;;;0.30;0.30;;;2.90;99.90;;;;;;4981249;28;20397;-73
2022/01/23 07:55:32;;;;;;;0.10;0.10;;;2.90;99.90;;;;;;5015124;28;20030;-75
2022/01/23 07:58:04;;;;;;;0.10;0.10;;;3.00;99.90;;;;;;5015025;28;20097;-73
2022/01/23 08:00:29;;;;;;;0.20;0.20;;;3.00;99.90;;;;;;4981404;28;20370;-74
2022/01/23 08:02:56;;;;;;;3.03;2.83;;;2.80;99.90;;;;;;5013414;28;20125;-74
2022/01/23 08:05:21;;;;;;;0.32;0.32;;;2.90;99.90;;;;;;5014896;28;20066;-74
2022/01/23 08:07:47;;;;;;;0.32;0.32;;;2.80;99.90;;;;;;5014822;28;20026;-74
2022/01/23 08:10:15;;;;;;;0.55;0.55;;;2.70;99.90;;;;;;5014759;28;20018;-74
2022/01/23 08:12:41;;;;;;;0.43;0.43;;;2.80;99.90;;;;;;5014768;28;20052;-74
2022/01/23 08:15:08;;;;;;;0.10;0.10;;;2.90;99.90;;;;;;4997229;28;20018;-74
2022/01/23 08:17:34;;;;;;;0.20;0.20;;;2.90;99.90;;;;;;5013436;28;20025;-74
2022/01/23 08:20:01;;;;;;;0.20;0.20;;;3.00;99.90;;;;;;5014509;28;20176;-74
2022/01/23 08:22:28;;;;;;;0.20;0.20;;;3.00;99.90;;;;;;5014520;28;20040;-74
2022/01/23 08:24:56;;;;;;;0.22;0.22;;;3.20;99.90;;;;;;5014614;28;20028;-74
2022/01/23 08:27:24;;;;;;;0.10;0.10;;;3.40;99.90;;;;;;5015108;28;20018;-74
2022/01/23 08:29:49;;;;;;;0.10;0.10;;;3.30;99.90;;;;;;5014572;28;20073;-74
2022/01/23 08:32:15;;;;;;;0.20;0.20;;;3.40;99.90;;;;;;5014261;28;20512;-74
2022/01/23 08:34:41;;;;;;;0.52;0.52;;;3.50;99.90;;;;;;5014384;28;20397;-74
2022/01/23 08:37:08;;;;;;;0.10;0.10;;;3.40;99.90;;;;;;5014204;28;20033;-74
2022/01/23 08:39:36;;;;;;;0.45;0.40;;;3.50;99.90;;;;;;5012890;28;20030;-74
2022/01/23 08:42:08;;;;;;;0.13;0.13;;;3.70;99.90;;;;;;5013881;28;20018;-74
2022/01/23 08:44:34;;;;;;;0.20;0.20;;;3.70;99.90;;;;;;4996734;28;20092;-74
2022/01/23 08:47:01;;;;;;;0.20;0.20;;;3.70;99.90;;;;;;5013130;28;20077;-74
2022/01/23 08:49:29;;;;;;;0.40;0.40;;;3.80;99.90;;;;;;5014115;28;20053;-73
2022/01/23 08:51:57;;;;;;;0.22;0.22;;;3.70;99.90;;;;;;4996556;28;20056;-74
2022/01/23 08:54:23;;;;;;;0.20;0.20;;;3.50;99.90;;;;;;5014137;28;20030;-74
2022/01/23 08:56:49;;;;;;;0.10;0.10;;;3.40;99.90;;;;;;5012606;28;20084;-73
2022/01/23 08:59:15;;;;;;;0.10;0.10;;;3.40;99.90;;;;;;5012043;28;20521;-74
2022/01/23 09:01:41;;;;;;;0.20;0.20;;;3.40;99.90;;;;;;5013364;28;20112;-74
2022/01/23 09:04:07;;;;;;;0.30;0.30;;;3.40;99.90;;;;;;5013790;28;20474;-75
2022/01/23 09:06:33;;;;;;;0.17;0.17;;;3.30;99.90;;;;;;5012596;28;20025;-75
2022/01/23 09:09:00;;;;;;;0.20;0.20;;;3.20;99.90;;;;;;4996249;28;20482;-75
2022/01/23 09:14:10;;;;;;;1.05;1.05;;;3.30;99.90;;;;;;5012379;28;20425;-75
2022/01/23 09:16:43;;;;;;;0.20;0.20;;;3.40;99.90;;;;;;5013659;28;20045;-75
2022/01/23 09:19:09;;;;;;;0.50;0.50;;;3.40;99.90;;;;;;5012364;28;20528;-75
2022/01/23 09:21:37;;;;;;;0.30;0.30;;;3.40;99.90;;;;;;4979572;28;20033;-75
2022/01/23 09:24:03;;;;;;;0.20;0.20;;;3.50;99.90;;;;;;5013575;28;20025;-75
2022/01/23 09:26:30;;;;;;;0.20;0.20;;;3.40;99.90;;;;;;5013390;28;20029;-75
2022/01/23 09:28:59;;;;;;;0.10;0.10;;;3.60;99.90;;;;;;5013405;28;20075;-75
2022/01/23 09:31:32;;;;;;;0.10;0.10;;;3.80;99.90;;;;;;4995731;28;20064;-75
2022/01/23 09:33:57;;;;;;;0.10;0.10;;;3.90;99.90;;;;;;4995824;28;20071;-75
2022/01/23 09:36:23;;;;;;;1.08;0.95;;;3.90;99.90;;;;;;5011920;28;20453;-75
2022/01/23 09:38:49;;;;;;;0.55;0.55;;;3.70;99.90;;;;;;5012116;28;20022;-75
2022/01/23 09:41:17;;;;;;;0.30;0.30;;;3.50;99.90;;;;;;4995784;28;20061;-75
2022/01/23 09:43:43;;;;;;;0.17;0.17;;;3.50;99.90;;;;;;5011911;28;20104;-75
2022/01/23 09:46:10;;;;;;;0.10;0.10;;;3.60;99.90;;;;;;5011523;28;20040;-75
2022/01/23 09:48:36;;;;;;;0.20;0.20;;;3.70;99.90;;;;;;5013116;28;20018;-75
2022/01/23 09:51:03;;;;;;;0.20;0.20;;;3.90;99.90;;;;;;5013067;28;20044;-75
2022/01/23 09:53:30;;;;;;;0.13;0.13;;;4.00;99.90;;;;;;4995221;28;20097;-75
2022/01/23 09:56:03;;;;;;;0.47;0.47;;;3.70;99.90;;;;;;4994759;28;20109;-75
2022/01/23 09:58:30;;;;;;;0.40;0.40;;;3.70;99.90;;;;;;5012559;28;20036;-75
2022/01/23 10:00:57;;;;;;;0.60;0.60;;;3.80;99.90;;;;;;5012366;28;20025;-75
2022/01/23 10:03:23;;;;;;;0.20;0.20;;;3.60;99.90;;;;;;5012435;28;20080;-75
2022/01/23 10:05:53;;;;;;;3.28;2.03;;;3.50;99.90;;;;;;5012360;28;20228;-75
2022/01/23 10:08:19;;;;;;;2.40;1.65;;;3.50;99.90;;;;;;5012437;28;20072;-75
2022/01/23 10:10:51;;;;;;;3.53;1.45;;;3.40;99.90;;;;;;5012220;28;20215;-75
2022/01/23 10:13:20;;;;;;;0.32;0.32;;;3.50;99.90;;;;;;5012537;28;20033;-75
2022/01/23 10:15:45;;;;;;;1.25;1.15;;;3.60;99.90;;;;;;4994314;28;20600;-75
2022/01/23 10:18:11;;;;;;;0.30;0.30;;;3.60;99.90;;;;;;5010837;28;20104;-75
2022/01/23 10:20:37;;;;;;;1.45;1.45;;;3.70;99.90;;;;;;5012208;28;20455;-75
2022/01/23 10:23:03;;;;;;;1.55;1.45;;;3.90;99.90;;;;;;5012238;28;20036;-75
2022/01/23 10:25:31;;;;;;;1.02;0.85;;;3.90;99.90;;;;;;4994611;28;20037;-76
2022/01/23 10:28:16;;;;;;;0.20;0.20;;;3.80;99.90;;;;;;4994650;28;20371;-75
2022/01/23 10:30:55;;;;;;;0.20;0.20;;;3.80;99.90;;;;;;5012155;28;20414;-75
2022/01/23 10:33:28;;;;;;;0.75;0.75;;;4.00;99.90;;;;;;5012124;28;20242;-75
2022/01/23 10:36:11;;;;;;;0.20;0.20;;;3.80;99.90;;;;;;4994372;28;20018;-75
2022/01/23 10:38:50;;;;;;;0.20;0.20;;;3.70;99.90;;;;;;5012144;28;20080;-75
2022/01/23 10:49:50;;;;;;;0.30;0.30;;;4.40;99.90;;;;;;5010487;28;20018;-75
2022/01/23 10:52:34;;;;;;;0.20;0.20;;;4.40;99.90;;;;;;5011790;28;20517;-75
2022/01/23 10:55:10;;;;;;;0.20;0.20;;;4.40;99.90;;;;;;4994510;28;20149;-75
2022/01/23 10:57:43;;;;;;;0.28;0.28;;;4.10;99.90;;;;;;4994192;28;20087;-75
2022/01/23 11:00:20;;;;;;;0.25;0.25;;;4.20;99.90;;;;;;5010674;28;20082;-75
2022/01/23 11:02:47;;;;;;;0.20;0.20;;;4.30;99.90;;;;;;4994133;28;20033;-75
2022/01/23 11:05:16;;;;;;;1.27;1.27;;;4.00;99.90;;;;;;4994023;28;20022;-75
2022/01/23 11:07:45;;;;;;;0.30;0.30;;;4.00;99.90;;;;;;4993986;28;20022;-75
2022/01/23 11:10:14;;;;;;;0.40;0.40;;;3.80;99.90;;;;;;5011686;28;20026;-75
2022/01/23 11:17:21;;;;;;;0.20;0.20;;;4.00;99.90;;;;;;4994098;28;20026;-75
2022/01/23 11:18:32;;;;;;;4.03;1.95;;;4.20;99.90;;;;;;5012043;28;20035;-75
2022/01/23 11:20:58;;;;;;;0.20;0.20;;;4.00;99.90;;;;;;5038200;22;20052;-77
2022/01/23 11:23:30;;;;;;;0.73;0.73;;;4.20;99.90;;;;;;5034906;28;20016;-76
2022/01/23 11:25:56;;;;;;;0.20;0.20;;;4.40;99.90;;;;;;5037375;28;20025;-77
2022/01/23 11:28:28;;;;;;;0.22;0.22;;;4.20;99.90;;;;;;5020880;28;20114;-77
2022/01/23 11:30:55;;;;;;;1.70;1.60;;;4.40;99.90;;;;;;5037406;28;20036;-76
2022/01/23 11:33:21;;;;;;;0.20;0.20;;;4.50;99.90;;;;;;5037450;28;20025;-77
2022/01/23 11:35:48;;;;;;;1.65;1.17;;;4.50;99.90;;;;;;5037394;28;20119;-77
2022/01/23 11:38:19;;;;;;;0.20;0.20;;;4.60;99.90;;;;;;5037307;28;20029;-77
2022/01/23 11:54:45;;;;;;;0.20;0.20;;;4.30;99.90;;;;;;5054905;28;20025;-76
2022/01/23 11:57:33;;;;;;;0.20;0.20;;;4.50;99.90;;;;;;5054773;28;20100;-77
2022/01/23 11:59:59;;;;;;;0.20;0.20;;;4.40;99.90;;;;;;5054959;28;20487;-77
2022/01/23 12:02:29;;;;;;;0.35;0.35;;;4.40;99.90;;;;;;5054714;28;20104;-77
2022/01/23 12:05:10;;;;;;;0.20;0.20;;;4.50;99.90;;;;;;5036708;28;20029;-77
2022/01/23 12:07:36;;;;;;;0.30;0.30;;;4.60;99.90;;;;;;5036834;28;20466;-77
2022/01/23 12:10:48;;;;;;;0.20;0.20;;;4.50;99.90;;;;;;5036897;28;20021;-76
2022/01/23 12:18:48;;;;;;;1.35;0.63;;;4.50;99.90;;;;;;5036633;28;20017;-77
2022/01/23 12:21:30;;;;;;;0.20;0.20;;;4.60;99.90;;;;;;5036780;28;20029;-77
2022/01/23 12:24:05;;;;;;;0.50;0.50;;;4.60;99.90;;;;;;5054232;28;20021;-77
2022/01/23 12:26:30;;;;;;;0.20;0.20;;;4.40;99.90;;;;;;5036331;28;20111;-77
2022/01/23 12:29:13;;;;;;;1.85;1.00;;;4.20;99.90;;;;;;5054405;28;20320;-76
2022/01/23 12:31:40;;;;;;;0.93;0.93;;;4.30;99.90;;;;;;5054110;28;20044;-77
2022/01/23 12:34:07;;;;;;;0.20;0.20;;;4.40;99.90;;;;;;5036261;28;20480;-77
2022/01/23 12:36:37;;;;;;;0.50;0.50;;;4.40;99.90;;;;;;5054153;28;20333;-77
2022/01/23 12:39:09;;;;;;;0.20;0.20;;;4.40;99.90;;;;;;5019759;28;20025;-77
2022/01/23 12:41:34;;;;;;;;;;;4.50;99.90;;;;;;5019882;28;20108;-77
2022/01/23 12:44:04;;;;;;;0.20;0.20;;;4.50;99.90;;;;;;5036888;28;20444;-77
2022/01/23 12:46:42;;;;;;;0.32;0.30;;;4.60;99.90;;;;;;5038607;28;20009;-77
2022/01/23 12:49:19;;;;;;;0.20;0.20;;;4.70;99.90;;;;;;5021966;28;20036;-77
2022/01/23 12:51:46;;;;;;;0.30;0.30;;;4.60;99.90;;;;;;5054467;28;20045;-77
2022/01/23 12:54:18;;;;;;;0.22;0.22;;;4.70;99.90;;;;;;5053776;28;20049;-76
2022/01/23 12:56:46;;;;;;;0.30;0.30;;;4.60;99.90;;;;;;5019021;28;20033;-77
2022/01/23 12:59:22;;;;;;;0.20;0.20;;;4.50;99.90;;;;;;5019413;28;20029;-76
2022/01/23 13:01:51;;;;;;;0.20;0.20;;;4.60;99.90;;;;;;5035874;28;20029;-77
2022/01/23 13:04:17;;;;;;;0.20;0.20;;;4.60;99.90;;;;;;5035751;28;20025;-77
2022/01/23 13:06:54;;;;;;;0.20;0.20;;;4.50;99.90;;;;;;5053436;28;20518;-77
2022/01/23 13:12:14;;;;;;;0.20;0.20;;;4.20;99.90;;;;;;5053367;28;20477;-76
2022/01/23 13:34:34;;;;;;;2.05;1.95;;;4.80;99.90;;;;;;5053116;28;20070;-76
2022/01/23 13:37:13;;;;;;;0.50;0.50;;;4.90;99.90;;;;;;5054336;28;20025;-78
2022/01/23 13:39:58;;;;;;;0.20;0.20;;;4.80;99.90;;;;;;5053009;28;20017;-77
2022/01/23 14:02:16;;;;;;;0.20;0.20;;;4.60;99.90;;;;;;5052055;28;20079;-76
2022/01/23 14:04:56;;;;;;;0.20;0.20;;;4.60;99.90;;;;;;5014699;28;20104;-76
2022/01/23 14:07:24;;;;;;;0.20;0.20;;;4.50;99.90;;;;;;5053830;28;20021;-76
2022/01/23 14:09:51;;;;;;;0.20;0.20;;;4.60;99.90;;;;;;5054528;28;20418;-76
2022/01/23 14:12:19;;;;;;;0.35;0.35;;;4.60;99.90;;;;;;5040767;28;20021;-77
2022/01/23 14:14:57;;;;;;;0.20;0.20;;;4.50;99.90;;;;;;5034145;28;20059;-77
2022/01/23 14:17:28;;;;;;;0.65;0.65;;;4.70;99.90;;;;;;5033851;28;20112;-77
2022/01/23 14:20:08;;;;;;;0.10;0.10;;;4.60;99.90;;;;;;5017864;28;20548;-76
2022/01/23 14:22:37;;;;;;;0.43;0.43;;;4.50;99.90;;;;;;5032110;28;20044;-76
2022/01/23 14:25:26;;;;;;;0.22;0.22;;;4.70;99.90;;;;;;5048184;28;20472;-77
2022/01/23 14:28:12;;;;;;;0.40;0.40;;;4.60;99.90;;;;;;5029766;28;20471;-76
2022/01/23 14:30:47;;;;;;;0.20;0.20;;;4.30;99.90;;;;;;5013685;28;20032;-77
2022/01/23 14:33:20;;;;;;;0.20;0.20;;;4.40;99.90;;;;;;5048186;28;20036;-76
2022/01/23 14:35:46;;;;;;;0.20;0.20;;;4.50;99.90;;;;;;5032419;28;20025;-76
2022/01/23 14:38:12;;;;;;;0.20;0.20;;;4.60;99.90;;;;;;5050250;28;20116;-76
2022/01/23 14:40:38;;;;;;;0.20;0.20;;;4.70;99.90;;;;;;5033511;28;20115;-77
2022/01/23 14:43:11;;;;;;;0.38;0.38;;;4.60;99.90;;;;;;5052016;28;20032;-77
2022/01/23 14:45:42;;;;;;;0.20;0.20;;;4.60;99.90;;;;;;5033966;28;20392;-77
2022/01/23 14:48:09;;;;;;;0.30;0.30;;;4.60;99.90;;;;;;5051922;28;20028;-76
2022/01/23 14:50:39;;;;;;;0.30;0.30;;;4.80;99.90;;;;;;5034046;28;20025;-77
2022/01/23 14:53:11;;;;;;;0.22;0.22;;;4.80;99.90;;;;;;5017419;28;20025;-77
2022/01/23 14:55:39;;;;;;;0.40;0.40;;;4.80;99.90;;;;;;5033919;28;20500;-77
2022/01/23 14:58:05;;;;;;;0.20;0.20;;;4.90;99.90;;;;;;5034771;28;20101;-76
2022/01/23 15:00:32;;;;;;;0.30;0.30;;;4.70;99.90;;;;;;5038020;28;20449;-77
2022/01/23 15:03:02;;;;;;;0.20;0.20;;;4.50;99.90;;;;;;5037933;28;20024;-77
2022/01/23 15:05:33;;;;;;;0.20;0.20;;;4.60;99.90;;;;;;5037834;28;20037;-77
2022/01/23 15:08:00;;;;;;;3.30;1.60;;;4.60;99.90;;;;;;5055761;28;20021;-76
2022/01/23 15:10:27;;;;;;;0.20;0.20;;;4.70;99.90;;;;;;5037929;28;20052;-77
2022/01/23 15:12:53;;;;;;;0.98;0.98;;;4.60;99.90;;;;;;5037774;28;20091;-77
2022/01/23 15:15:19;;;;;;;0.22;0.22;;;4.50;99.90;;;;;;5037719;28;20108;-76
2022/01/23 15:17:45;;;;;;;0.95;0.95;;;4.50;99.90;;;;;;5055388;28;20064;-77
2022/01/23 15:20:11;;;;;;;0.20;0.20;;;4.50;99.90;;;;;;5037618;28;20028;-77
2022/01/23 15:22:37;;;;;;;3.30;2.55;;;4.50;99.90;;;;;;5037529;28;20377;-76
2022/01/23 15:25:06;;;;;;;0.28;0.28;;;4.40;99.90;;;;;;5037380;28;20074;-77
2022/01/23 15:27:32;;;;;;;0.20;0.20;;;4.50;99.90;;;;;;5037422;28;20021;-76
2022/01/23 15:29:58;;;;;;;0.28;0.28;;;4.50;99.90;;;;;;5020943;28;20021;-77
2022/01/23 15:32:24;;;;;;;0.20;0.20;;;4.40;99.90;;;;;;5055109;28;20025;-77
2022/01/23 15:34:51;;;;;;;0.50;0.50;;;4.30;99.90;;;;;;5055123;28;20056;-76
2022/01/23 15:37:16;;;;;;;1.20;1.20;;;4.30;99.90;;;;;;5037089;28;20053;-77
2022/01/23 15:39:43;;;;;;;0.20;0.20;;;4.10;99.90;;;;;;5055001;28;20118;-77
2022/01/23 15:42:08;;;;;;;2.60;2.50;;;4.10;99.90;;;;;;5037113;28;20056;-76
2022/01/23 15:44:35;;;;;;;1.52;1.50;;;4.10;99.90;;;;;;5054906;28;20087;-76
2022/01/23 15:47:01;;;;;;;0.38;0.38;;;4.20;99.90;;;;;;5054799;28;20043;-76
2022/01/23 15:49:27;;;;;;;0.20;0.20;;;4.30;99.90;;;;;;5037165;28;20017;-77
2022/01/23 15:51:52;;;;;;;0.20;0.20;;;4.30;99.90;;;;;;5054800;28;20104;-77
2022/01/23 15:54:19;;;;;;;0.30;0.30;;;4.40;99.90;;;;;;5037062;28;20062;-77
2022/01/23 15:56:47;;;;;;;0.20;0.20;;;4.40;99.90;;;;;;5037220;28;20033;-76
2022/01/23 15:59:15;;;;;;;0.30;0.30;;;4.40;99.90;;;;;;5054708;28;20025;-76
2022/01/23 16:01:41;;;;;;;0.70;0.68;;;4.30;99.90;;;;;;5020249;28;20029;-77
2022/01/23 16:04:06;;;;;;;0.20;0.20;;;4.30;99.90;;;;;;5020217;28;20033;-77
2022/01/23 16:06:32;;;;;;;0.20;0.20;;;4.20;99.90;;;;;;5036558;28;20025;-77
2022/01/23 16:08:58;;;;;;;0.30;0.30;;;4.10;99.90;;;;;;5053853;28;20476;-77
2022/01/23 16:11:24;;;;;;;0.20;0.20;;;4.10;99.90;;;;;;5054422;28;20025;-77
2022/01/23 16:13:49;;;;;;;0.20;0.20;;;4.00;99.90;;;;;;5054739;28;20070;-76
2022/01/23 16:16:15;;;;;;;0.20;0.20;;;4.00;99.90;;;;;;5036323;28;20024;-77
2022/01/23 16:18:41;;;;;;;0.30;0.30;;;4.00;99.90;;;;;;5036624;28;20029;-77
2022/01/23 16:21:08;;;;;;;1.52;1.42;;;4.10;99.90;;;;;;5038809;28;20021;-78
2022/01/23 16:23:34;;;;;;;0.10;0.10;;;4.10;99.90;;;;;;5021724;28;20094;-77
2022/01/23 16:26:00;;;;;;;0.30;0.30;;;4.10;99.90;;;;;;5021729;28;20032;-77
2022/01/23 16:28:26;;;;;;;0.20;0.20;;;3.90;99.90;;;;;;5038471;28;20036;-78
2022/01/23 16:30:54;;;;;;;0.40;0.40;;;3.80;99.90;;;;;;5037174;28;20033;-76
2022/01/23 16:33:23;;;;;;;0.20;0.20;;;3.90;99.90;;;;;;5058904;28;20057;-75
2022/01/23 16:35:49;;;;;;;0.30;0.30;;;3.90;99.90;;;;;;5074137;28;20111;-77
2022/01/23 16:38:15;;;;;;;0.47;0.47;;;4.00;99.90;;;;;;5056438;28;20054;-77
2022/01/23 16:40:43;;;;;;;2.40;1.95;;;4.00;99.90;;;;;;5065409;28;20021;-77